Terminal Aerodrome Forecast
Issued by NWS

Home | Current Version | Previous Version | Text Only | Print | Product List | Glossary On
Versions: 1 2 3 4 5 6 7 8 9 10 11 12 13 14 15
000
FTUS41 KPBZ 020530
TAFZZV
TAF
KZZV 020530Z 0206/0306 24003KT P6SM SCT080
      TEMPO 0209/0212 5SM BR
     FM021500 23010KT P6SM SCT050=

USA.gov is the U.S. government's official web portal to all federal, state and local government web resources and services.